Hovedside
METAR-TAF:

METAR-TAF

Lufthavner :

El Papalon

San Miguel, El Salvador

breddegrad: 13-27N, lengdegrad: 088-07W, høyde over havet: 80 m

Gjeldene værobservasjon

Denne rapporten ble laget for 8 timer og 3 minutter siden, klokken 20:50 UTC
Vind 7 kt fra Sørvest
Temperatur 32°C
Luftfuktighet 59%
Trykk 1008 hPa
Sikt 10 km eller mer
Få skyer i en høyde av 3300 ft

METAR: MSSM 192050Z 22007KT 9999 FEW033 32/23 Q1007 A2976

Tid: 22:53 (04:53 UTC)


TAF: fraværende

Værobservasjoner og værvarsel for over 4000 flyplasser (METAR- og TAF-rapporter).

Tilgjengelige stasjoner er representert av de røde og gule prikkene på kartet.

Hold musepekeren over prikken for å se navnet på stasjonen.

Klikk så for å se værobservasjoner og -varsler.

For å forandre kartet kan du klikke på den grønne knappen med svart kryss for å zoome inn, på den grønne knappen med strek for å zoome ut, eller på de grønne pilene for å se tilstøtende kart.


METAR-TAF: